sensor_id;sensor_type;location;lat;lon;timestamp;P1;durP1;ratioP1;P2;durP2;ratioP2
16466;SDS011;8344;47.560;9.710;2023-06-14T00:00:33;0.30;;;0.30;;
16466;SDS011;8344;47.560;9.710;2023-06-14T00:02:59;0.30;;;0.30;;
16466;SDS011;8344;47.560;9.710;2023-06-14T00:05:25;0.28;;;0.28;;
16466;SDS011;8344;47.560;9.710;2023-06-14T00:07:51;0.30;;;0.30;;
16466;SDS011;8344;47.560;9.710;2023-06-14T00:10:18;0.30;;;0.30;;
16466;SDS011;8344;47.560;9.710;2023-06-14T00:12:43;0.40;;;0.40;;
16466;SDS011;8344;47.560;9.710;2023-06-14T00:15:09;0.30;;;0.30;;
16466;SDS011;8344;47.560;9.710;2023-06-14T00:17:34;0.30;;;0.30;;
16466;SDS011;8344;47.560;9.710;2023-06-14T00:20:02;0.32;;;0.32;;
16466;SDS011;8344;47.560;9.710;2023-06-14T00:22:30;0.30;;;0.30;;
16466;SDS011;8344;47.560;9.710;2023-06-14T00:24:55;0.30;;;0.30;;
16466;SDS011;8344;47.560;9.710;2023-06-14T00:27:21;0.20;;;0.20;;
16466;SDS011;8344;47.560;9.710;2023-06-14T00:29:46;0.20;;;0.20;;
16466;SDS011;8344;47.560;9.710;2023-06-14T00:32:11;0.30;;;0.30;;
16466;SDS011;8344;47.560;9.710;2023-06-14T00:34:37;0.30;;;0.30;;
16466;SDS011;8344;47.560;9.710;2023-06-14T00:37:02;0.30;;;0.30;;
16466;SDS011;8344;47.560;9.710;2023-06-14T00:39:27;0.38;;;0.38;;
16466;SDS011;8344;47.560;9.710;2023-06-14T00:41:53;0.40;;;0.40;;
16466;SDS011;8344;47.560;9.710;2023-06-14T00:44:18;0.20;;;0.20;;
16466;SDS011;8344;47.560;9.710;2023-06-14T00:46:46;0.30;;;0.30;;
16466;SDS011;8344;47.560;9.710;2023-06-14T00:49:13;0.30;;;0.30;;
16466;SDS011;8344;47.560;9.710;2023-06-14T00:51:40;0.30;;;0.30;;
16466;SDS011;8344;47.560;9.710;2023-06-14T00:54:06;0.30;;;0.30;;
16466;SDS011;8344;47.560;9.710;2023-06-14T00:56:31;0.40;;;0.40;;
16466;SDS011;8344;47.560;9.710;2023-06-14T00:58:57;0.40;;;0.40;;
16466;SDS011;8344;47.560;9.710;2023-06-14T01:01:22;0.35;;;0.35;;
16466;SDS011;8344;47.560;9.710;2023-06-14T01:03:49;0.40;;;0.40;;
16466;SDS011;8344;47.560;9.710;2023-06-14T01:06:33;0.43;;;0.43;;
16466;SDS011;8344;47.560;9.710;2023-06-14T01:09:25;0.40;;;0.40;;
16466;SDS011;8344;47.560;9.710;2023-06-14T01:11:55;0.40;;;0.40;;
16466;SDS011;8344;47.560;9.710;2023-06-14T01:14:32;0.32;;;0.32;;
16466;SDS011;8344;47.560;9.710;2023-06-14T01:16:59;0.40;;;0.40;;
16466;SDS011;8344;47.560;9.710;2023-06-14T01:19:25;0.30;;;0.30;;
16466;SDS011;8344;47.560;9.710;2023-06-14T01:21:53;0.30;;;0.30;;
16466;SDS011;8344;47.560;9.710;2023-06-14T01:24:20;0.30;;;0.30;;
16466;SDS011;8344;47.560;9.710;2023-06-14T01:26:51;0.30;;;0.30;;
16466;SDS011;8344;47.560;9.710;2023-06-14T01:29:20;0.30;;;0.30;;
16466;SDS011;8344;47.560;9.710;2023-06-14T01:31:47;0.30;;;0.30;;
16466;SDS011;8344;47.560;9.710;2023-06-14T01:34:12;0.30;;;0.30;;
16466;SDS011;8344;47.560;9.710;2023-06-14T01:36:38;0.30;;;0.30;;
16466;SDS011;8344;47.560;9.710;2023-06-14T01:39:05;0.40;;;0.40;;
16466;SDS011;8344;47.560;9.710;2023-06-14T01:41:31;0.40;;;0.40;;
16466;SDS011;8344;47.560;9.710;2023-06-14T01:43:56;0.35;;;0.35;;
16466;SDS011;8344;47.560;9.710;2023-06-14T01:46:23;0.35;;;0.35;;
16466;SDS011;8344;47.560;9.710;2023-06-14T01:48:48;0.32;;;0.32;;
16466;SDS011;8344;47.560;9.710;2023-06-14T01:51:14;0.40;;;0.40;;
16466;SDS011;8344;47.560;9.710;2023-06-14T01:53:39;0.40;;;0.40;;
16466;SDS011;8344;47.560;9.710;2023-06-14T01:56:05;0.30;;;0.30;;
16466;SDS011;8344;47.560;9.710;2023-06-14T01:58:31;0.50;;;0.50;;
16466;SDS011;8344;47.560;9.710;2023-06-14T02:00:56;0.40;;;0.40;;
16466;SDS011;8344;47.560;9.710;2023-06-14T02:03:22;0.40;;;0.40;;
16466;SDS011;8344;47.560;9.710;2023-06-14T02:05:49;0.60;;;0.60;;
16466;SDS011;8344;47.560;9.710;2023-06-14T02:08:14;0.40;;;0.40;;
16466;SDS011;8344;47.560;9.710;2023-06-14T02:10:39;0.38;;;0.38;;
16466;SDS011;8344;47.560;9.710;2023-06-14T02:13:05;0.40;;;0.40;;
16466;SDS011;8344;47.560;9.710;2023-06-14T02:15:30;0.40;;;0.40;;
16466;SDS011;8344;47.560;9.710;2023-06-14T02:17:59;0.50;;;0.50;;
16466;SDS011;8344;47.560;9.710;2023-06-14T02:20:25;0.40;;;0.40;;
16466;SDS011;8344;47.560;9.710;2023-06-14T02:22:50;0.40;;;0.40;;
16466;SDS011;8344;47.560;9.710;2023-06-14T02:25:15;0.40;;;0.40;;
16466;SDS011;8344;47.560;9.710;2023-06-14T02:27:41;0.50;;;0.50;;
16466;SDS011;8344;47.560;9.710;2023-06-14T02:30:06;0.30;;;0.30;;
16466;SDS011;8344;47.560;9.710;2023-06-14T02:32:32;0.40;;;0.40;;
16466;SDS011;8344;47.560;9.710;2023-06-14T02:35:00;0.30;;;0.30;;
16466;SDS011;8344;47.560;9.710;2023-06-14T02:37:25;0.30;;;0.30;;
16466;SDS011;8344;47.560;9.710;2023-06-14T02:39:51;0.40;;;0.40;;
16466;SDS011;8344;47.560;9.710;2023-06-14T02:42:16;0.35;;;0.35;;
16466;SDS011;8344;47.560;9.710;2023-06-14T02:44:41;0.30;;;0.30;;
16466;SDS011;8344;47.560;9.710;2023-06-14T02:47:08;0.40;;;0.40;;
16466;SDS011;8344;47.560;9.710;2023-06-14T02:49:33;0.50;;;0.50;;
16466;SDS011;8344;47.560;9.710;2023-06-14T02:51:59;0.43;;;0.43;;
16466;SDS011;8344;47.560;9.710;2023-06-14T02:54:24;0.40;;;0.40;;
16466;SDS011;8344;47.560;9.710;2023-06-14T02:56:50;0.30;;;0.30;;
16466;SDS011;8344;47.560;9.710;2023-06-14T02:59:15;0.40;;;0.40;;
16466;SDS011;8344;47.560;9.710;2023-06-14T03:01:41;0.40;;;0.40;;
16466;SDS011;8344;47.560;9.710;2023-06-14T03:04:07;0.43;;;0.43;;
16466;SDS011;8344;47.560;9.710;2023-06-14T03:06:33;0.30;;;0.30;;
16466;SDS011;8344;47.560;9.710;2023-06-14T03:08:59;0.40;;;0.40;;
16466;SDS011;8344;47.560;9.710;2023-06-14T03:11:26;0.60;;;0.60;;
16466;SDS011;8344;47.560;9.710;2023-06-14T03:13:52;0.40;;;0.40;;
16466;SDS011;8344;47.560;9.710;2023-06-14T03:16:17;0.40;;;0.40;;
16466;SDS011;8344;47.560;9.710;2023-06-14T03:18:46;0.50;;;0.50;;
16466;SDS011;8344;47.560;9.710;2023-06-14T03:21:12;0.43;;;0.43;;
16466;SDS011;8344;47.560;9.710;2023-06-14T03:23:37;0.40;;;0.40;;
16466;SDS011;8344;47.560;9.710;2023-06-14T03:26:02;0.40;;;0.40;;
16466;SDS011;8344;47.560;9.710;2023-06-14T03:28:28;0.40;;;0.40;;
16466;SDS011;8344;47.560;9.710;2023-06-14T03:30:53;0.45;;;0.45;;
16466;SDS011;8344;47.560;9.710;2023-06-14T03:33:18;0.50;;;0.50;;
16466;SDS011;8344;47.560;9.710;2023-06-14T03:35:44;0.40;;;0.40;;
16466;SDS011;8344;47.560;9.710;2023-06-14T03:38:09;0.40;;;0.40;;
16466;SDS011;8344;47.560;9.710;2023-06-14T03:40:35;0.40;;;0.40;;
16466;SDS011;8344;47.560;9.710;2023-06-14T03:43:00;0.40;;;0.40;;
16466;SDS011;8344;47.560;9.710;2023-06-14T03:45:25;0.40;;;0.40;;
16466;SDS011;8344;47.560;9.710;2023-06-14T03:47:51;0.40;;;0.40;;
16466;SDS011;8344;47.560;9.710;2023-06-14T03:50:17;0.30;;;0.30;;
16466;SDS011;8344;47.560;9.710;2023-06-14T03:52:43;0.40;;;0.40;;
16466;SDS011;8344;47.560;9.710;2023-06-14T03:55:08;0.40;;;0.40;;
16466;SDS011;8344;47.560;9.710;2023-06-14T03:57:34;0.40;;;0.40;;
16466;SDS011;8344;47.560;9.710;2023-06-14T03:59:59;0.30;;;0.30;;
16466;SDS011;8344;47.560;9.710;2023-06-14T04:02:25;0.50;;;0.50;;
16466;SDS011;8344;47.560;9.710;2023-06-14T04:04:53;0.50;;;0.50;;
16466;SDS011;8344;47.560;9.710;2023-06-14T04:07:19;0.32;;;0.32;;
16466;SDS011;8344;47.560;9.710;2023-06-14T04:09:44;0.50;;;0.50;;
16466;SDS011;8344;47.560;9.710;2023-06-14T04:12:10;0.40;;;0.40;;
16466;SDS011;8344;47.560;9.710;2023-06-14T04:14:36;0.40;;;0.40;;
16466;SDS011;8344;47.560;9.710;2023-06-14T04:17:02;0.40;;;0.40;;
16466;SDS011;8344;47.560;9.710;2023-06-14T04:19:27;0.50;;;0.50;;
16466;SDS011;8344;47.560;9.710;2023-06-14T04:21:53;0.50;;;0.50;;
16466;SDS011;8344;47.560;9.710;2023-06-14T04:24:18;0.40;;;0.40;;
16466;SDS011;8344;47.560;9.710;2023-06-14T04:26:44;0.40;;;0.40;;
16466;SDS011;8344;47.560;9.710;2023-06-14T04:29:12;0.38;;;0.38;;
16466;SDS011;8344;47.560;9.710;2023-06-14T04:31:42;0.40;;;0.40;;
16466;SDS011;8344;47.560;9.710;2023-06-14T04:34:09;0.40;;;0.40;;
16466;SDS011;8344;47.560;9.710;2023-06-14T04:36:41;0.30;;;0.30;;
16466;SDS011;8344;47.560;9.710;2023-06-14T04:39:08;0.30;;;0.30;;
16466;SDS011;8344;47.560;9.710;2023-06-14T04:41:33;0.40;;;0.40;;
16466;SDS011;8344;47.560;9.710;2023-06-14T04:44:00;0.40;;;0.40;;
16466;SDS011;8344;47.560;9.710;2023-06-14T04:46:29;0.40;;;0.40;;
16466;SDS011;8344;47.560;9.710;2023-06-14T04:48:57;0.40;;;0.40;;
16466;SDS011;8344;47.560;9.710;2023-06-14T04:51:22;0.20;;;0.20;;
16466;SDS011;8344;47.560;9.710;2023-06-14T04:53:54;0.30;;;0.30;;
16466;SDS011;8344;47.560;9.710;2023-06-14T04:56:21;0.40;;;0.40;;
16466;SDS011;8344;47.560;9.710;2023-06-14T04:58:47;0.40;;;0.40;;
16466;SDS011;8344;47.560;9.710;2023-06-14T05:01:12;0.30;;;0.30;;
16466;SDS011;8344;47.560;9.710;2023-06-14T05:03:37;0.30;;;0.30;;
16466;SDS011;8344;47.560;9.710;2023-06-14T05:06:03;0.35;;;0.35;;
16466;SDS011;8344;47.560;9.710;2023-06-14T05:08:28;0.40;;;0.40;;
16466;SDS011;8344;47.560;9.710;2023-06-14T05:10:54;0.40;;;0.40;;
16466;SDS011;8344;47.560;9.710;2023-06-14T05:13:19;0.40;;;0.40;;
16466;SDS011;8344;47.560;9.710;2023-06-14T05:15:46;0.45;;;0.45;;
16466;SDS011;8344;47.560;9.710;2023-06-14T05:18:12;0.40;;;0.40;;
16466;SDS011;8344;47.560;9.710;2023-06-14T05:20:38;0.40;;;0.40;;
16466;SDS011;8344;47.560;9.710;2023-06-14T05:23:03;0.40;;;0.40;;
16466;SDS011;8344;47.560;9.710;2023-06-14T05:25:28;0.40;;;0.40;;
16466;SDS011;8344;47.560;9.710;2023-06-14T05:27:54;0.30;;;0.30;;
16466;SDS011;8344;47.560;9.710;2023-06-14T05:30:19;0.20;;;0.20;;
16466;SDS011;8344;47.560;9.710;2023-06-14T05:32:45;0.50;;;0.50;;
16466;SDS011;8344;47.560;9.710;2023-06-14T05:35:11;0.30;;;0.30;;
16466;SDS011;8344;47.560;9.710;2023-06-14T05:37:36;0.38;;;0.38;;
16466;SDS011;8344;47.560;9.710;2023-06-14T05:40:02;0.20;;;0.20;;
16466;SDS011;8344;47.560;9.710;2023-06-14T05:42:30;0.40;;;0.40;;
16466;SDS011;8344;47.560;9.710;2023-06-14T05:44:55;0.30;;;0.30;;
16466;SDS011;8344;47.560;9.710;2023-06-14T05:47:21;0.30;;;0.30;;
16466;SDS011;8344;47.560;9.710;2023-06-14T05:49:46;0.30;;;0.30;;
16466;SDS011;8344;47.560;9.710;2023-06-14T05:52:11;0.30;;;0.30;;
16466;SDS011;8344;47.560;9.710;2023-06-14T05:54:38;0.10;;;0.10;;
16466;SDS011;8344;47.560;9.710;2023-06-14T05:57:03;0.20;;;0.20;;
16466;SDS011;8344;47.560;9.710;2023-06-14T05:59:31;0.10;;;0.10;;
16466;SDS011;8344;47.560;9.710;2023-06-14T06:01:56;0.10;;;0.10;;
16466;SDS011;8344;47.560;9.710;2023-06-14T06:04:22;0.10;;;0.10;;
16466;SDS011;8344;47.560;9.710;2023-06-14T06:06:50;0.10;;;0.10;;
16466;SDS011;8344;47.560;9.710;2023-06-14T06:09:16;0.10;;;0.10;;
16466;SDS011;8344;47.560;9.710;2023-06-14T06:11:41;0.10;;;0.10;;
16466;SDS011;8344;47.560;9.710;2023-06-14T06:14:06;0.10;;;0.10;;
16466;SDS011;8344;47.560;9.710;2023-06-14T06:16:31;0.10;;;0.10;;
16466;SDS011;8344;47.560;9.710;2023-06-14T06:18:57;0.10;;;0.10;;
16466;SDS011;8344;47.560;9.710;2023-06-14T06:21:23;0.10;;;0.10;;
16466;SDS011;8344;47.560;9.710;2023-06-14T06:23:48;0.00;;;0.00;;
16466;SDS011;8344;47.560;9.710;2023-06-14T06:26:13;0.10;;;0.10;;
16466;SDS011;8344;47.560;9.710;2023-06-14T06:28:38;0.10;;;0.10;;
16466;SDS011;8344;47.560;9.710;2023-06-14T06:31:04;0.03;;;0.03;;
16466;SDS011;8344;47.560;9.710;2023-06-14T06:33:30;0.00;;;0.00;;
16466;SDS011;8344;47.560;9.710;2023-06-14T06:35:55;0.10;;;0.10;;
16466;SDS011;8344;47.560;9.710;2023-06-14T06:38:21;0.10;;;0.10;;
16466;SDS011;8344;47.560;9.710;2023-06-14T06:40:46;0.00;;;0.00;;
16466;SDS011;8344;47.560;9.710;2023-06-14T06:43:12;0.00;;;0.00;;
16466;SDS011;8344;47.560;9.710;2023-06-14T06:45:38;0.00;;;0.00;;
16466;SDS011;8344;47.560;9.710;2023-06-14T06:48:04;0.00;;;0.00;;
16466;SDS011;8344;47.560;9.710;2023-06-14T06:50:30;0.00;;;0.00;;
16466;SDS011;8344;47.560;9.710;2023-06-14T06:52:55;0.00;;;0.00;;
16466;SDS011;8344;47.560;9.710;2023-06-14T06:55:20;0.00;;;0.00;;
16466;SDS011;8344;47.560;9.710;2023-06-14T06:57:46;0.10;;;0.10;;
16466;SDS011;8344;47.560;9.710;2023-06-14T07:00:11;0.00;;;0.00;;
16466;SDS011;8344;47.560;9.710;2023-06-14T07:02:37;0.10;;;0.10;;
16466;SDS011;8344;47.560;9.710;2023-06-14T07:05:03;0.10;;;0.10;;
16466;SDS011;8344;47.560;9.710;2023-06-14T07:07:29;0.10;;;0.10;;
16466;SDS011;8344;47.560;9.710;2023-06-14T07:09:54;0.10;;;0.10;;
16466;SDS011;8344;47.560;9.710;2023-06-14T07:12:22;0.10;;;0.10;;
16466;SDS011;8344;47.560;9.710;2023-06-14T07:14:47;0.10;;;0.10;;
16466;SDS011;8344;47.560;9.710;2023-06-14T07:17:13;0.10;;;0.10;;
16466;SDS011;8344;47.560;9.710;2023-06-14T07:19:38;0.10;;;0.10;;
16466;SDS011;8344;47.560;9.710;2023-06-14T07:22:03;0.20;;;0.20;;
16466;SDS011;8344;47.560;9.710;2023-06-14T07:24:28;0.20;;;0.20;;
16466;SDS011;8344;47.560;9.710;2023-06-14T07:26:54;0.20;;;0.20;;
16466;SDS011;8344;47.560;9.710;2023-06-14T07:29:21;0.20;;;0.20;;
16466;SDS011;8344;47.560;9.710;2023-06-14T07:31:46;0.20;;;0.20;;
16466;SDS011;8344;47.560;9.710;2023-06-14T07:34:11;0.20;;;0.20;;
16466;SDS011;8344;47.560;9.710;2023-06-14T07:36:37;0.20;;;0.20;;
16466;SDS011;8344;47.560;9.710;2023-06-14T07:39:03;0.28;;;0.28;;
16466;SDS011;8344;47.560;9.710;2023-06-14T07:41:28;0.10;;;0.10;;
16466;SDS011;8344;47.560;9.710;2023-06-14T07:43:54;0.10;;;0.10;;
16466;SDS011;8344;47.560;9.710;2023-06-14T07:46:20;0.20;;;0.20;;
16466;SDS011;8344;47.560;9.710;2023-06-14T07:48:45;0.20;;;0.20;;
16466;SDS011;8344;47.560;9.710;2023-06-14T07:51:10;0.20;;;0.20;;
16466;SDS011;8344;47.560;9.710;2023-06-14T07:53:36;0.10;;;0.10;;
16466;SDS011;8344;47.560;9.710;2023-06-14T07:56:01;0.20;;;0.20;;
16466;SDS011;8344;47.560;9.710;2023-06-14T07:58:27;0.20;;;0.20;;
16466;SDS011;8344;47.560;9.710;2023-06-14T08:00:53;0.20;;;0.20;;
16466;SDS011;8344;47.560;9.710;2023-06-14T08:03:18;0.30;;;0.30;;
16466;SDS011;8344;47.560;9.710;2023-06-14T08:05:44;0.10;;;0.10;;
16466;SDS011;8344;47.560;9.710;2023-06-14T08:08:09;0.20;;;0.20;;
16466;SDS011;8344;47.560;9.710;2023-06-14T08:10:35;0.10;;;0.10;;
16466;SDS011;8344;47.560;9.710;2023-06-14T08:13:00;0.25;;;0.25;;
16466;SDS011;8344;47.560;9.710;2023-06-14T08:15:25;0.10;;;0.10;;
16466;SDS011;8344;47.560;9.710;2023-06-14T08:17:51;0.20;;;0.20;;
16466;SDS011;8344;47.560;9.710;2023-06-14T08:20:16;0.20;;;0.20;;
16466;SDS011;8344;47.560;9.710;2023-06-14T08:22:42;0.20;;;0.20;;
16466;SDS011;8344;47.560;9.710;2023-06-14T08:25:07;0.20;;;0.20;;
16466;SDS011;8344;47.560;9.710;2023-06-14T08:27:33;0.17;;;0.17;;
16466;SDS011;8344;47.560;9.710;2023-06-14T08:29:59;0.20;;;0.20;;
16466;SDS011;8344;47.560;9.710;2023-06-14T08:32:24;0.20;;;0.20;;
16466;SDS011;8344;47.560;9.710;2023-06-14T08:34:49;0.30;;;0.30;;
16466;SDS011;8344;47.560;9.710;2023-06-14T08:37:15;0.10;;;0.10;;
16466;SDS011;8344;47.560;9.710;2023-06-14T08:39:41;0.17;;;0.17;;
16466;SDS011;8344;47.560;9.710;2023-06-14T08:42:06;0.20;;;0.20;;
16466;SDS011;8344;47.560;9.710;2023-06-14T08:44:32;0.10;;;0.10;;
16466;SDS011;8344;47.560;9.710;2023-06-14T08:46:59;0.20;;;0.20;;
16466;SDS011;8344;47.560;9.710;2023-06-14T08:49:25;0.17;;;0.17;;
16466;SDS011;8344;47.560;9.710;2023-06-14T08:51:52;0.15;;;0.15;;
16466;SDS011;8344;47.560;9.710;2023-06-14T08:54:22;0.20;;;0.20;;
16466;SDS011;8344;47.560;9.710;2023-06-14T08:56:49;0.10;;;0.10;;
16466;SDS011;8344;47.560;9.710;2023-06-14T08:59:16;0.25;;;0.25;;
16466;SDS011;8344;47.560;9.710;2023-06-14T09:01:43;0.10;;;0.10;;
16466;SDS011;8344;47.560;9.710;2023-06-14T09:04:10;0.20;;;0.20;;
16466;SDS011;8344;47.560;9.710;2023-06-14T09:06:35;0.15;;;0.15;;
16466;SDS011;8344;47.560;9.710;2023-06-14T09:09:01;0.20;;;0.20;;
16466;SDS011;8344;47.560;9.710;2023-06-14T09:11:29;0.15;;;0.15;;
16466;SDS011;8344;47.560;9.710;2023-06-14T09:13:55;0.10;;;0.10;;
16466;SDS011;8344;47.560;9.710;2023-06-14T09:16:20;0.20;;;0.20;;
16466;SDS011;8344;47.560;9.710;2023-06-14T09:18:46;0.17;;;0.17;;
16466;SDS011;8344;47.560;9.710;2023-06-14T09:21:15;0.20;;;0.20;;
16466;SDS011;8344;47.560;9.710;2023-06-14T09:23:42;0.17;;;0.17;;
16466;SDS011;8344;47.560;9.710;2023-06-14T09:26:09;0.10;;;0.10;;
16466;SDS011;8344;47.560;9.710;2023-06-14T09:28:35;0.17;;;0.17;;
16466;SDS011;8344;47.560;9.710;2023-06-14T09:31:01;0.20;;;0.20;;
16466;SDS011;8344;47.560;9.710;2023-06-14T09:33:26;0.10;;;0.10;;
16466;SDS011;8344;47.560;9.710;2023-06-14T09:35:52;0.10;;;0.10;;
16466;SDS011;8344;47.560;9.710;2023-06-14T09:38:19;0.10;;;0.10;;
16466;SDS011;8344;47.560;9.710;2023-06-14T09:40:45;0.10;;;0.10;;
16466;SDS011;8344;47.560;9.710;2023-06-14T09:43:10;0.10;;;0.10;;
16466;SDS011;8344;47.560;9.710;2023-06-14T09:45:36;0.20;;;0.20;;
16466;SDS011;8344;47.560;9.710;2023-06-14T09:48:04;0.10;;;0.10;;
16466;SDS011;8344;47.560;9.710;2023-06-14T09:50:30;0.20;;;0.20;;
16466;SDS011;8344;47.560;9.710;2023-06-14T09:52:56;0.10;;;0.10;;
16466;SDS011;8344;47.560;9.710;2023-06-14T09:55:27;0.20;;;0.20;;
16466;SDS011;8344;47.560;9.710;2023-06-14T09:57:55;0.10;;;0.10;;
16466;SDS011;8344;47.560;9.710;2023-06-14T10:00:21;0.10;;;0.10;;
16466;SDS011;8344;47.560;9.710;2023-06-14T10:02:49;0.28;;;0.28;;
16466;SDS011;8344;47.560;9.710;2023-06-14T10:05:19;0.20;;;0.20;;
16466;SDS011;8344;47.560;9.710;2023-06-14T10:07:52;0.20;;;0.20;;
16466;SDS011;8344;47.560;9.710;2023-06-14T10:10:18;0.20;;;0.20;;
16466;SDS011;8344;47.560;9.710;2023-06-14T10:12:43;0.10;;;0.10;;
16466;SDS011;8344;47.560;9.710;2023-06-14T10:15:09;0.10;;;0.10;;
16466;SDS011;8344;47.560;9.710;2023-06-14T10:17:47;0.10;;;0.10;;
16466;SDS011;8344;47.560;9.710;2023-06-14T10:20:33;0.20;;;0.20;;
16466;SDS011;8344;47.560;9.710;2023-06-14T10:23:13;0.17;;;0.17;;
16466;SDS011;8344;47.560;9.710;2023-06-14T10:25:41;0.20;;;0.20;;
16466;SDS011;8344;47.560;9.710;2023-06-14T10:28:17;0.10;;;0.10;;
16466;SDS011;8344;47.560;9.710;2023-06-14T10:33:32;0.17;;;0.17;;
16466;SDS011;8344;47.560;9.710;2023-06-14T10:41:41;0.17;;;0.17;;
16466;SDS011;8344;47.560;9.710;2023-06-14T10:44:17;0.17;;;0.17;;
16466;SDS011;8344;47.560;9.710;2023-06-14T10:50:09;0.15;;;0.15;;
16466;SDS011;8344;47.560;9.710;2023-06-14T10:52:40;0.13;;;0.13;;
16466;SDS011;8344;47.560;9.710;2023-06-14T10:55:13;0.10;;;0.10;;
16466;SDS011;8344;47.560;9.710;2023-06-14T10:57:44;0.10;;;0.10;;
16466;SDS011;8344;47.560;9.710;2023-06-14T11:00:16;0.20;;;0.20;;
16466;SDS011;8344;47.560;9.710;2023-06-14T11:02:53;0.13;;;0.13;;
16466;SDS011;8344;47.560;9.710;2023-06-14T11:10:43;0.20;;;0.20;;
16466;SDS011;8344;47.560;9.710;2023-06-14T11:13:10;0.10;;;0.10;;
16466;SDS011;8344;47.560;9.710;2023-06-14T11:15:36;0.20;;;0.20;;
16466;SDS011;8344;47.560;9.710;2023-06-14T11:18:04;0.17;;;0.17;;
16466;SDS011;8344;47.560;9.710;2023-06-14T11:20:31;0.20;;;0.20;;
16466;SDS011;8344;47.560;9.710;2023-06-14T11:22:57;0.20;;;0.20;;
16466;SDS011;8344;47.560;9.710;2023-06-14T11:25:23;0.10;;;0.10;;
16466;SDS011;8344;47.560;9.710;2023-06-14T11:27:49;0.10;;;0.10;;
16466;SDS011;8344;47.560;9.710;2023-06-14T11:30:15;0.10;;;0.10;;
16466;SDS011;8344;47.560;9.710;2023-06-14T11:32:41;0.10;;;0.10;;
16466;SDS011;8344;47.560;9.710;2023-06-14T11:35:07;0.20;;;0.20;;
16466;SDS011;8344;47.560;9.710;2023-06-14T11:37:34;0.10;;;0.10;;
16466;SDS011;8344;47.560;9.710;2023-06-14T11:40:02;0.10;;;0.10;;
16466;SDS011;8344;47.560;9.710;2023-06-14T11:42:31;0.10;;;0.10;;
16466;SDS011;8344;47.560;9.710;2023-06-14T11:44:56;0.10;;;0.10;;
16466;SDS011;8344;47.560;9.710;2023-06-14T11:47:22;0.10;;;0.10;;
16466;SDS011;8344;47.560;9.710;2023-06-14T11:49:48;0.10;;;0.10;;
16466;SDS011;8344;47.560;9.710;2023-06-14T11:52:13;0.10;;;0.10;;
16466;SDS011;8344;47.560;9.710;2023-06-14T11:54:39;0.15;;;0.15;;
16466;SDS011;8344;47.560;9.710;2023-06-14T11:57:06;0.10;;;0.10;;
16466;SDS011;8344;47.560;9.710;2023-06-14T11:59:40;0.10;;;0.10;;
16466;SDS011;8344;47.560;9.710;2023-06-14T12:02:06;0.20;;;0.20;;
16466;SDS011;8344;47.560;9.710;2023-06-14T12:04:32;0.10;;;0.10;;
16466;SDS011;8344;47.560;9.710;2023-06-14T12:06:57;0.10;;;0.10;;
16466;SDS011;8344;47.560;9.710;2023-06-14T12:09:23;0.10;;;0.10;;
16466;SDS011;8344;47.560;9.710;2023-06-14T12:11:50;0.10;;;0.10;;
16466;SDS011;8344;47.560;9.710;2023-06-14T12:14:16;0.10;;;0.10;;
16466;SDS011;8344;47.560;9.710;2023-06-14T12:16:41;0.10;;;0.10;;
16466;SDS011;8344;47.560;9.710;2023-06-14T12:19:08;0.15;;;0.15;;
16466;SDS011;8344;47.560;9.710;2023-06-14T12:21:38;0.00;;;0.00;;
16466;SDS011;8344;47.560;9.710;2023-06-14T12:24:05;0.10;;;0.10;;
16466;SDS011;8344;47.560;9.710;2023-06-14T12:26:31;0.10;;;0.10;;
16466;SDS011;8344;47.560;9.710;2023-06-14T12:28:57;0.10;;;0.10;;
16466;SDS011;8344;47.560;9.710;2023-06-14T12:31:22;0.10;;;0.10;;
16466;SDS011;8344;47.560;9.710;2023-06-14T12:33:47;0.10;;;0.10;;
16466;SDS011;8344;47.560;9.710;2023-06-14T12:36:16;0.10;;;0.10;;
16466;SDS011;8344;47.560;9.710;2023-06-14T12:38:42;0.10;;;0.10;;
16466;SDS011;8344;47.560;9.710;2023-06-14T12:41:07;0.10;;;0.10;;
16466;SDS011;8344;47.560;9.710;2023-06-14T12:43:33;0.10;;;0.10;;
16466;SDS011;8344;47.560;9.710;2023-06-14T12:45:58;0.10;;;0.10;;
16466;SDS011;8344;47.560;9.710;2023-06-14T12:48:24;0.10;;;0.10;;
16466;SDS011;8344;47.560;9.710;2023-06-14T12:50:49;0.10;;;0.10;;
16466;SDS011;8344;47.560;9.710;2023-06-14T12:53:15;0.10;;;0.10;;
16466;SDS011;8344;47.560;9.710;2023-06-14T12:55:40;0.10;;;0.10;;
16466;SDS011;8344;47.560;9.710;2023-06-14T12:58:06;0.10;;;0.10;;
16466;SDS011;8344;47.560;9.710;2023-06-14T13:00:31;0.10;;;0.10;;
16466;SDS011;8344;47.560;9.710;2023-06-14T13:02:57;0.10;;;0.10;;
16466;SDS011;8344;47.560;9.710;2023-06-14T13:05:22;0.10;;;0.10;;
16466;SDS011;8344;47.560;9.710;2023-06-14T13:07:48;0.20;;;0.20;;
16466;SDS011;8344;47.560;9.710;2023-06-14T13:10:13;0.10;;;0.10;;
16466;SDS011;8344;47.560;9.710;2023-06-14T13:12:39;0.10;;;0.10;;
16466;SDS011;8344;47.560;9.710;2023-06-14T13:15:05;0.10;;;0.10;;
16466;SDS011;8344;47.560;9.710;2023-06-14T13:17:31;0.20;;;0.20;;
16466;SDS011;8344;47.560;9.710;2023-06-14T13:19:58;0.10;;;0.10;;
16466;SDS011;8344;47.560;9.710;2023-06-14T13:22:25;0.10;;;0.10;;
16466;SDS011;8344;47.560;9.710;2023-06-14T13:24:50;0.10;;;0.10;;
16466;SDS011;8344;47.560;9.710;2023-06-14T13:27:15;0.15;;;0.15;;
16466;SDS011;8344;47.560;9.710;2023-06-14T13:29:41;0.10;;;0.10;;
16466;SDS011;8344;47.560;9.710;2023-06-14T13:32:06;0.10;;;0.10;;
16466;SDS011;8344;47.560;9.710;2023-06-14T13:34:32;0.10;;;0.10;;
16466;SDS011;8344;47.560;9.710;2023-06-14T13:36:57;0.20;;;0.20;;
16466;SDS011;8344;47.560;9.710;2023-06-14T13:39:24;0.10;;;0.10;;
16466;SDS011;8344;47.560;9.710;2023-06-14T13:41:50;0.10;;;0.10;;
16466;SDS011;8344;47.560;9.710;2023-06-14T13:44:15;0.10;;;0.10;;
16466;SDS011;8344;47.560;9.710;2023-06-14T13:46:44;0.10;;;0.10;;
16466;SDS011;8344;47.560;9.710;2023-06-14T13:49:09;0.20;;;0.20;;
16466;SDS011;8344;47.560;9.710;2023-06-14T13:51:35;0.08;;;0.08;;
16466;SDS011;8344;47.560;9.710;2023-06-14T13:54:00;0.10;;;0.10;;
16466;SDS011;8344;47.560;9.710;2023-06-14T13:56:26;0.20;;;0.20;;
16466;SDS011;8344;47.560;9.710;2023-06-14T13:58:51;0.20;;;0.20;;
16466;SDS011;8344;47.560;9.710;2023-06-14T14:01:17;0.10;;;0.10;;
16466;SDS011;8344;47.560;9.710;2023-06-14T14:03:44;0.10;;;0.10;;
16466;SDS011;8344;47.560;9.710;2023-06-14T14:06:11;0.10;;;0.10;;
16466;SDS011;8344;47.560;9.710;2023-06-14T14:08:36;0.10;;;0.10;;
16466;SDS011;8344;47.560;9.710;2023-06-14T14:11:01;0.10;;;0.10;;
16466;SDS011;8344;47.560;9.710;2023-06-14T14:13:27;0.10;;;0.10;;
16466;SDS011;8344;47.560;9.710;2023-06-14T14:15:52;0.20;;;0.20;;
16466;SDS011;8344;47.560;9.710;2023-06-14T14:18:18;0.10;;;0.10;;
16466;SDS011;8344;47.560;9.710;2023-06-14T14:20:43;0.10;;;0.10;;
16466;SDS011;8344;47.560;9.710;2023-06-14T14:23:08;0.05;;;0.05;;
16466;SDS011;8344;47.560;9.710;2023-06-14T14:25:34;0.10;;;0.10;;
16466;SDS011;8344;47.560;9.710;2023-06-14T14:27:59;0.10;;;0.10;;
16466;SDS011;8344;47.560;9.710;2023-06-14T14:30:28;0.10;;;0.10;;
16466;SDS011;8344;47.560;9.710;2023-06-14T14:32:54;0.13;;;0.13;;
16466;SDS011;8344;47.560;9.710;2023-06-14T14:35:19;0.10;;;0.10;;
16466;SDS011;8344;47.560;9.710;2023-06-14T14:37:44;0.10;;;0.10;;
16466;SDS011;8344;47.560;9.710;2023-06-14T14:40:10;0.10;;;0.10;;
16466;SDS011;8344;47.560;9.710;2023-06-14T14:42:36;0.10;;;0.10;;
16466;SDS011;8344;47.560;9.710;2023-06-14T14:45:02;0.15;;;0.15;;
16466;SDS011;8344;47.560;9.710;2023-06-14T14:47:27;0.10;;;0.10;;
16466;SDS011;8344;47.560;9.710;2023-06-14T14:49:52;0.10;;;0.10;;
16466;SDS011;8344;47.560;9.710;2023-06-14T14:52:18;0.17;;;0.17;;
16466;SDS011;8344;47.560;9.710;2023-06-14T14:54:43;0.10;;;0.10;;
16466;SDS011;8344;47.560;9.710;2023-06-14T14:57:08;0.10;;;0.10;;
16466;SDS011;8344;47.560;9.710;2023-06-14T14:59:34;0.20;;;0.20;;
16466;SDS011;8344;47.560;9.710;2023-06-14T15:01:59;0.10;;;0.10;;
16466;SDS011;8344;47.560;9.710;2023-06-14T15:04:25;0.10;;;0.10;;
16466;SDS011;8344;47.560;9.710;2023-06-14T15:06:50;0.10;;;0.10;;
16466;SDS011;8344;47.560;9.710;2023-06-14T15:09:15;0.20;;;0.20;;
16466;SDS011;8344;47.560;9.710;2023-06-14T15:11:41;0.10;;;0.10;;